Time;durP1;ratioP1;P1;durP2;ratioP2;P2;SDS_P1;SDS_P2;PMS_P1;PMS_P2;Temp;Humidity;BMP_temperature;BMP_pressure;BME280_temperature;BME280_humidity;BME280_pressure;Samples;Min_cycle;Max_cycle;Signal;HPM_P1;HPM_P2
2024/01/21 00:00:53;;;;;;;4.80;3.63;;;;;;;-144.30;100.00;86832.03;5089396;28;20282;-56
2024/01/21 00:03:20;;;;;;;4.20;3.80;;;;;;;-144.30;100.00;86800.19;5089370;28;20223;-56
2024/01/21 00:05:48;;;;;;;4.67;4.10;;;;;;;-144.30;100.00;86843.97;5089286;28;20565;-57
2024/01/21 00:08:15;;;;;;;7.17;4.03;;;;;;;-144.30;100.00;86794.25;5089096;28;20209;-56
2024/01/21 00:10:42;;;;;;;5.63;5.13;;;;;;;-144.30;100.00;86802.19;5089412;28;20202;-56
2024/01/21 00:13:09;;;;;;;9.03;6.77;;;;;;;-144.30;100.00;86800.19;5090523;28;20205;-57
2024/01/21 00:15:36;;;;;;;8.40;5.93;;;;;;;-144.30;100.00;86792.25;5092950;28;20197;-56
2024/01/21 00:18:03;;;;;;;6.63;4.93;;;;;;;-144.30;100.00;86788.28;5092939;28;20204;-57
2024/01/21 00:20:32;;;;;;;6.30;4.17;;;;;;;-144.30;100.00;86836.00;5092770;28;20202;-57
2024/01/21 00:23:01;;;;;;;4.63;3.60;;;;;;;-144.30;100.00;86824.06;5092887;28;20321;-58
2024/01/21 00:25:28;;;;;;;4.60;4.07;;;;;;;-144.30;100.00;86820.09;5092715;28;20555;-57
2024/01/21 00:27:54;;;;;;;4.77;4.07;;;;;;;-144.30;100.00;86847.94;5092527;28;20266;-58
2024/01/21 00:30:21;;;;;;;3.90;3.50;;;;;;;-144.30;100.00;86792.25;5092535;28;20202;-57
2024/01/21 00:32:48;;;;;;;4.13;3.30;;;;;;;-144.30;100.00;86782.31;5092661;28;20193;-56
2024/01/21 00:35:15;;;;;;;4.03;3.63;;;;;;;-144.30;100.00;86830.03;5092328;28;20206;-56
2024/01/21 00:37:42;;;;;;;4.33;3.63;;;;;;;-144.30;100.00;86834.00;5092571;28;20207;-56
2024/01/21 00:40:11;;;;;;;6.20;4.40;;;;;;;-144.30;100.00;86800.19;5092463;28;20433;-56
2024/01/21 00:42:38;;;;;;;5.10;4.10;;;;;;;-144.30;100.00;86816.13;5092523;28;20793;-56
2024/01/21 00:45:06;;;;;;;4.10;3.60;;;;;;;-144.30;100.00;86756.44;5092360;28;20735;-56
2024/01/21 00:47:32;;;;;;;3.70;3.30;;;;;;;-144.30;100.00;86776.34;5092190;28;20195;-57
2024/01/21 00:49:59;;;;;;;6.00;3.73;;;;;;;-144.30;100.00;86786.28;5092426;28;20227;-55
2024/01/21 00:52:26;;;;;;;4.53;3.20;;;;;;;-144.30;100.00;86800.19;5092162;28;20196;-56
2024/01/21 00:54:54;;;;;;;4.47;3.60;;;;;;;-144.30;100.00;86790.25;5092361;28;20592;-55
2024/01/21 00:57:22;;;;;;;4.03;3.67;;;;;;;-144.30;100.00;86796.22;5091672;28;20199;-56
2024/01/21 00:59:50;;;;;;;4.20;3.80;;;;;;;-144.30;100.00;86826.06;5091972;28;20198;-57
2024/01/21 01:02:16;;;;;;;4.87;4.03;;;;;;;-144.30;100.00;86818.09;5091773;28;20609;-55
2024/01/21 01:04:43;;;;;;;5.60;3.83;;;;;;;-144.30;100.00;86824.06;5092079;28;20197;-57
2024/01/21 01:07:10;;;;;;;5.57;4.03;;;;;;;-144.30;100.00;86841.97;5091762;28;20205;-56
2024/01/21 01:09:37;;;;;;;4.40;4.00;;;;;;;-144.30;100.00;86780.31;5091863;28;20250;-58
2024/01/21 01:12:05;;;;;;;3.93;3.60;;;;;;;-144.30;100.00;86828.03;5091805;28;20191;-58
2024/01/21 01:14:33;;;;;;;4.13;3.83;;;;;;;-144.30;100.00;86812.13;5091808;28;20202;-58
2024/01/21 01:17:00;;;;;;;5.10;3.80;;;;;;;-144.30;100.00;86832.03;5092016;28;20233;-57
2024/01/21 01:19:27;;;;;;;4.30;3.73;;;;;;;-144.30;100.00;86816.13;5091844;28;20230;-56
2024/01/21 01:21:54;;;;;;;4.53;4.13;;;;;;;-144.30;100.00;86843.97;5092021;28;20667;-55
2024/01/21 01:24:21;;;;;;;5.03;4.03;;;;;;;-144.30;100.00;86810.16;5090669;28;20696;-57
2024/01/21 01:26:48;;;;;;;4.87;3.90;;;;;;;-144.30;100.00;86748.50;5091672;28;20195;-56
2024/01/21 01:29:14;;;;;;;4.20;3.50;;;;;;;-144.30;100.00;86812.13;5091274;28;20194;-58
2024/01/21 01:31:43;;;;;;;4.30;3.90;;;;;;;-144.30;100.00;86847.94;5091552;28;20202;-58
2024/01/21 01:34:10;;;;;;;4.50;4.00;;;;;;;-144.30;100.00;86782.31;5091468;28;20199;-57
2024/01/21 01:36:37;;;;;;;5.03;4.40;;;;;;;-144.30;100.00;86792.25;5091424;28;20203;-59
2024/01/21 01:39:04;;;;;;;6.67;4.47;;;;;;;-144.30;100.00;86824.06;5091263;28;20191;-59
2024/01/21 01:41:31;;;;;;;6.40;4.30;;;;;;;-144.30;100.00;86859.88;5091271;28;20588;-59
2024/01/21 01:43:58;;;;;;;5.97;4.40;;;;;;;-144.30;100.00;86806.16;5091291;28;20223;-57
2024/01/21 01:46:25;;;;;;;5.37;4.27;;;;;;;-144.30;100.00;86822.09;5091576;28;20690;-60
2024/01/21 01:48:53;;;;;;;4.57;3.83;;;;;;;-144.30;100.00;86836.00;5091188;28;20206;-55
2024/01/21 01:51:20;;;;;;;5.20;4.30;;;;;;;-144.30;100.00;86812.13;5090873;28;20588;-55
2024/01/21 01:53:48;;;;;;;9.00;5.67;;;;;;;-144.30;100.00;86834.00;5091136;28;20585;-55
2024/01/21 01:56:15;;;;;;;13.50;7.90;;;;;;;-144.30;100.00;86879.75;5090927;28;20202;-55
2024/01/21 01:58:44;;;;;;;13.27;7.67;;;;;;;-144.30;100.00;86808.16;5091427;28;20193;-55
2024/01/21 02:01:11;;;;;;;10.13;7.13;;;;;;;-144.30;100.00;86661.00;5090916;28;20206;-55
2024/01/21 02:03:38;;;;;;;8.70;5.87;;;;;;;-144.30;100.00;86828.03;5090944;28;20245;-55
2024/01/21 02:06:07;;;;;;;8.33;4.70;;;;;;;-144.30;100.00;86863.84;5090768;28;20198;-58
2024/01/21 02:08:34;;;;;;;6.00;5.00;;;;;;;-144.30;100.00;86826.06;5090801;28;20200;-57
2024/01/21 02:11:01;;;;;;;5.50;4.97;;;;;;;-144.30;100.00;86841.97;5090860;28;20198;-58
2024/01/21 02:13:29;;;;;;;4.80;4.30;;;;;;;-144.30;100.00;86865.84;5091165;28;20487;-55
2024/01/21 02:15:58;;;;;;;4.93;4.27;;;;;;;-144.30;100.00;86808.16;5090760;28;20197;-54
2024/01/21 02:18:25;;;;;;;4.80;4.37;;;;;;;-144.30;100.00;86818.09;5090618;28;20204;-55
2024/01/21 02:20:52;;;;;;;4.80;4.30;;;;;;;-144.30;100.00;86859.88;5090735;28;20692;-55
2024/01/21 02:23:21;;;;;;;4.40;4.00;;;;;;;-144.30;100.00;86838.00;5090549;28;20230;-55
2024/01/21 02:25:47;;;;;;;8.67;4.23;;;;;;;-144.30;100.00;86828.03;5091261;28;20586;-58
2024/01/21 02:28:14;;;;;;;5.07;4.00;;;;;;;-144.30;100.00;86847.94;5090544;28;20255;-58
2024/01/21 02:30:42;;;;;;;4.30;3.90;;;;;;;-144.30;100.00;86824.06;5090424;28;20282;-58
2024/01/21 02:33:09;;;;;;;6.60;3.73;;;;;;;-144.30;100.00;86828.03;5090040;28;20272;-58
2024/01/21 02:35:37;;;;;;;4.47;3.87;;;;;;;-144.30;100.00;86828.03;5089821;28;20205;-56
2024/01/21 02:38:04;;;;;;;6.20;4.40;;;;;;;-144.30;100.00;86843.97;5090116;28;20199;-59
2024/01/21 02:40:33;;;;;;;4.17;3.87;;;;;;;-144.30;100.00;86861.84;5090111;28;20194;-53
2024/01/21 02:42:59;;;;;;;4.27;3.83;;;;;;;-144.30;100.00;86841.97;5090012;28;20215;-59
2024/01/21 02:45:26;;;;;;;4.77;3.77;;;;;;;-144.30;100.00;86808.16;5089840;28;20194;-59
2024/01/21 02:47:53;;;;;;;4.03;3.63;;;;;;;-144.30;100.00;86820.09;5090161;28;20205;-54
2024/01/21 02:50:20;;;;;;;4.27;3.80;;;;;;;-144.30;100.00;86832.03;5089936;28;20595;-53
2024/01/21 02:52:47;;;;;;;4.47;4.07;;;;;;;-144.30;100.00;86796.22;5090051;28;20207;-55
2024/01/21 02:55:14;;;;;;;4.40;3.50;;;;;;;-144.30;100.00;86824.06;5090316;28;20692;-55
2024/01/21 02:57:41;;;;;;;3.80;3.43;;;;;;;-144.30;100.00;86808.16;5089989;28;20199;-58
2024/01/21 03:00:09;;;;;;;4.07;3.67;;;;;;;-144.30;100.00;86832.03;5089867;28;20197;-58
2024/01/21 03:02:37;;;;;;;5.33;3.80;;;;;;;-144.30;100.00;86851.91;5049713;28;20233;-54
2024/01/21 03:05:04;;;;;;;3.80;3.50;;;;;;;-144.30;100.00;86796.22;5049834;28;20716;-56
2024/01/21 03:07:31;;;;;;;3.63;3.30;;;;;;;-144.30;100.00;86859.88;5049954;28;20195;-58
2024/01/21 03:09:58;;;;;;;4.20;3.80;;;;;;;-144.30;100.00;86816.13;5050091;28;20587;-58
2024/01/21 03:12:25;;;;;;;4.90;4.37;;;;;;;-144.30;100.00;86836.00;5049600;28;20206;-55
2024/01/21 03:14:53;;;;;;;4.50;4.10;;;;;;;-144.30;100.00;86843.97;5049738;28;20199;-56
2024/01/21 03:17:20;;;;;;;4.63;3.93;;;;;;;-144.30;100.00;86824.06;5049492;28;20197;-55
2024/01/21 03:19:47;;;;;;;4.00;3.60;;;;;;;-144.30;100.00;86828.03;5049697;28;20221;-58
2024/01/21 03:22:14;;;;;;;4.10;3.67;;;;;;;-144.30;100.00;86784.28;5049316;28;20203;-55
2024/01/21 03:24:41;;;;;;;6.10;3.70;;;;;;;-144.30;100.00;86828.03;5049552;28;20223;-55
2024/01/21 03:27:08;;;;;;;4.00;3.60;;;;;;;-144.30;100.00;86800.19;5049313;28;20231;-55
2024/01/21 03:29:34;;;;;;;5.10;3.60;;;;;;;-144.30;100.00;86834.00;5049499;28;20235;-55
2024/01/21 03:32:03;;;;;;;4.87;3.67;;;;;;;-144.30;100.00;86841.97;5049253;28;20209;-57
2024/01/21 03:34:30;;;;;;;4.20;3.80;;;;;;;-144.30;100.00;86859.88;5049174;28;20204;-57
2024/01/21 03:36:57;;;;;;;4.87;3.93;;;;;;;-144.30;100.00;86800.19;5049349;28;20210;-55
2024/01/21 03:39:23;;;;;;;3.90;3.60;;;;;;;-144.30;100.00;86841.97;5049303;28;20679;-56
2024/01/21 03:41:50;;;;;;;4.27;3.87;;;;;;;-144.30;100.00;86857.88;5049235;28;20196;-55
2024/01/21 03:44:17;;;;;;;5.93;4.07;;;;;;;-144.30;100.00;86841.97;5049125;28;20637;-56
2024/01/21 03:46:44;;;;;;;4.57;4.17;;;;;;;-144.30;100.00;86824.06;5049284;28;20723;-58
2024/01/21 03:49:12;;;;;;;3.77;3.47;;;;;;;-144.30;100.00;86830.03;5052123;28;20200;-58
2024/01/21 03:51:39;;;;;;;6.43;3.37;;;;;;;-144.30;100.00;86832.03;5053423;28;20276;-58
2024/01/21 03:54:06;;;;;;;5.57;4.10;;;;;;;-144.30;100.00;86855.88;5053146;28;20286;-56
2024/01/21 03:56:33;;;;;;;5.83;4.10;;;;;;;-144.30;100.00;86812.13;5053006;28;20203;-54
2024/01/21 03:59:00;;;;;;;4.70;3.93;;;;;;;-144.30;100.00;86712.69;5053137;28;20199;-56
2024/01/21 04:01:27;;;;;;;6.50;5.00;;;;;;;-144.30;100.00;86855.88;5052631;28;20218;-56
2024/01/21 04:03:54;;;;;;;6.03;4.47;;;;;;;-144.30;100.00;86847.94;5053199;28;20224;-57
2024/01/21 04:06:22;;;;;;;4.53;4.10;;;;;;;-144.30;100.00;86855.88;5052868;28;20585;-58
2024/01/21 04:08:50;;;;;;;6.47;4.07;;;;;;;-144.30;100.00;86865.84;5052832;28;20237;-55
2024/01/21 04:11:17;;;;;;;4.70;4.30;;;;;;;-144.30;100.00;86828.03;5052651;28;20198;-55
2024/01/21 04:13:44;;;;;;;5.30;4.67;;;;;;;-144.30;100.00;86826.06;5052711;28;20203;-53
2024/01/21 04:16:11;;;;;;;6.30;5.13;;;;;;;-144.30;100.00;86879.75;5052607;28;20206;-59
2024/01/21 04:18:38;;;;;;;6.17;4.97;;;;;;;-144.30;100.00;86828.03;5052895;28;20207;-55
2024/01/21 04:21:05;;;;;;;5.77;5.13;;;;;;;-144.30;100.00;86859.88;5052508;28;20232;-55
2024/01/21 04:23:33;;;;;;;7.10;5.60;;;;;;;-144.30;100.00;86661.00;5052388;28;20626;-56
2024/01/21 04:26:00;;;;;;;7.60;5.63;;;;;;;-144.30;100.00;86855.88;5052641;28;20198;-54
2024/01/21 04:28:27;;;;;;;7.77;5.77;;;;;;;-144.30;100.00;86859.88;5051972;28;20239;-54
2024/01/21 04:30:54;;;;;;;8.37;5.63;;;;;;;-144.30;100.00;86839.97;5052310;28;20203;-55
2024/01/21 04:33:21;;;;;;;7.33;5.60;;;;;;;-144.30;100.00;86621.22;5052108;28;20203;-55
2024/01/21 04:35:47;;;;;;;7.33;5.53;;;;;;;-144.30;100.00;86855.88;5054164;28;21025;-55
2024/01/21 04:38:14;;;;;;;7.97;5.87;;;;;;;-144.30;100.00;86863.84;5062893;28;20199;-54
2024/01/21 04:40:43;;;;;;;9.30;6.00;;;;;;;-144.30;100.00;86867.81;5064315;28;20690;-55
2024/01/21 04:43:10;;;;;;;10.10;6.10;;;;;;;-144.30;100.00;86855.88;5055066;28;20223;-55
2024/01/21 04:45:36;;;;;;;10.63;6.43;;;;;;;-144.30;100.00;86712.69;5071535;28;20588;-55
2024/01/21 04:48:04;;;;;;;10.17;6.30;;;;;;;-144.30;100.00;86853.91;5071677;28;20204;-54
2024/01/21 04:50:31;;;;;;;10.27;6.20;;;;;;;-144.30;100.00;86861.84;5058599;28;20213;-55
2024/01/21 04:52:58;;;;;;;8.97;6.10;;;;;;;-144.30;100.00;86843.97;5071824;28;20206;-55
2024/01/21 04:55:25;;;;;;;10.23;6.07;;;;;;;-144.30;100.00;86869.81;5055224;28;20600;-55
2024/01/21 04:57:53;;;;;;;9.33;6.27;;;;;;;-144.30;100.00;86859.88;5051923;28;20583;-54
2024/01/21 05:00:20;;;;;;;9.60;6.77;;;;;;;-144.30;100.00;86748.50;5051327;28;20192;-55
2024/01/21 05:02:47;;;;;;;14.27;8.77;;;;;;;-144.30;100.00;86861.84;5051547;28;20193;-55
2024/01/21 05:05:14;;;;;;;13.53;8.97;;;;;;;-144.30;100.00;86818.09;5050873;28;20229;-56
2024/01/21 05:07:41;;;;;;;12.73;8.43;;;;;;;-144.30;100.00;86849.91;5051694;28;20203;-55
2024/01/21 05:10:09;;;;;;;16.90;10.30;;;;;;;-144.30;100.00;86863.84;5051164;28;20203;-58
2024/01/21 05:12:36;;;;;;;15.73;9.53;;;;;;;-144.30;100.00;86859.88;5071296;28;20207;-58
2024/01/21 05:15:05;;;;;;;15.73;9.23;;;;;;;-144.30;100.00;86832.03;5071516;28;20188;-58
2024/01/21 05:17:31;;;;;;;13.17;8.60;;;;;;;-144.30;100.00;86814.13;5071355;28;20200;-58
2024/01/21 05:19:58;;;;;;;12.87;9.27;;;;;;;-144.30;100.00;86841.97;5071072;28;20195;-58
2024/01/21 05:22:25;;;;;;;13.60;8.97;;;;;;;-144.30;100.00;86806.16;5054924;28;20213;-58
2024/01/21 05:24:52;;;;;;;14.27;9.03;;;;;;;-144.30;100.00;86838.00;5051033;28;20224;-58
2024/01/21 05:27:19;;;;;;;15.70;9.47;;;;;;;-144.30;100.00;86845.94;5050970;28;20228;-54
2024/01/21 05:29:46;;;;;;;16.13;9.70;;;;;;;-144.30;100.00;86861.84;5054280;28;20213;-55
2024/01/21 05:32:14;;;;;;;16.50;9.20;;;;;;;-144.30;100.00;86853.91;5071188;28;20199;-59
2024/01/21 05:34:41;;;;;;;14.13;9.17;;;;;;;-144.30;100.00;86836.00;5073795;28;20212;-58
2024/01/21 05:37:08;;;;;;;14.13;8.53;;;;;;;-144.30;100.00;86887.72;5069468;28;20685;-55
2024/01/21 05:39:35;;;;;;;13.47;9.17;;;;;;;-144.30;100.00;86881.75;5060187;28;20202;-55
2024/01/21 05:42:03;;;;;;;17.47;8.47;;;;;;;-144.30;100.00;86871.81;5074054;28;20210;-56
2024/01/21 05:44:30;;;;;;;14.27;9.17;;;;;;;-144.30;100.00;86891.69;5064295;28;20227;-58
2024/01/21 05:46:57;;;;;;;14.53;8.40;;;;;;;-144.30;100.00;86867.81;5064664;28;20216;-58
2024/01/21 05:49:25;;;;;;;14.63;8.47;;;;;;;-144.30;100.00;86768.38;5070338;28;20211;-60
2024/01/21 05:51:52;;;;;;;14.17;8.53;;;;;;;-144.30;100.00;86863.84;5069019;28;20199;-56
2024/01/21 05:54:19;;;;;;;15.23;8.87;;;;;;;-144.30;100.00;86851.91;5069243;28;20195;-56
2024/01/21 05:56:46;;;;;;;16.27;9.97;;;;;;;-144.30;100.00;86859.88;5070077;28;20203;-56
2024/01/21 05:59:16;;;;;;;16.10;10.20;;;;;;;-144.30;100.00;86851.91;5069628;28;20206;-57
2024/01/21 06:01:44;;;;;;;17.83;10.80;;;;;;;-144.30;100.00;86839.97;5069402;28;20202;-56
2024/01/21 06:04:11;;;;;;;23.23;15.03;;;;;;;-144.30;100.00;86814.13;5068880;28;20537;-54
2024/01/21 06:06:39;;;;;;;20.93;13.20;;;;;;;-144.30;100.00;86836.00;5066394;28;20209;-55
2024/01/21 06:09:06;;;;;;;24.87;14.03;;;;;;;-144.30;100.00;86836.00;5069213;28;20211;-55
2024/01/21 06:11:33;;;;;;;22.77;12.57;;;;;;;-144.30;100.00;86834.00;5069235;28;20217;-56
2024/01/21 06:14:00;;;;;;;18.23;11.93;;;;;;;-144.30;100.00;86834.00;5070012;28;20184;-55
2024/01/21 06:16:27;;;;;;;19.17;12.00;;;;;;;-144.30;100.00;86843.97;5069711;28;20588;-55
2024/01/21 06:18:54;;;;;;;19.77;11.50;;;;;;;-144.30;100.00;86849.91;5070262;28;20568;-56
2024/01/21 06:21:21;;;;;;;18.73;11.37;;;;;;;-144.30;100.00;86851.91;5069473;28;20191;-55
2024/01/21 06:23:49;;;;;;;16.77;11.13;;;;;;;-144.30;100.00;86818.09;5070063;28;20526;-55
2024/01/21 06:26:16;;;;;;;17.00;10.43;;;;;;;-144.30;100.00;86843.97;5070207;28;20197;-56
2024/01/21 06:28:43;;;;;;;16.77;9.97;;;;;;;-144.30;100.00;86859.88;5069258;28;20739;-56
2024/01/21 06:31:10;;;;;;;20.50;10.10;;;;;;;-144.30;100.00;86808.16;5070014;28;20230;-55
2024/01/21 06:33:36;;;;;;;19.73;10.23;;;;;;;-144.30;100.00;86802.19;5070399;28;20207;-55
2024/01/21 06:36:04;;;;;;;16.90;9.30;;;;;;;-144.30;100.00;86834.00;5070112;28;20286;-56
2024/01/21 06:38:31;;;;;;;16.70;9.40;;;;;;;-144.30;100.00;86875.78;5069961;28;20667;-56
2024/01/21 06:40:59;;;;;;;14.10;8.33;;;;;;;-144.30;100.00;86863.84;5070107;28;20586;-56
2024/01/21 06:43:26;;;;;;;14.43;8.30;;;;;;;-144.30;100.00;86830.03;5069794;28;20698;-58
2024/01/21 06:45:53;;;;;;;15.20;9.37;;;;;;;-144.30;100.00;86826.06;5068150;28;20208;-59
2024/01/21 06:48:20;;;;;;;13.13;8.37;;;;;;;-144.30;100.00;86828.03;5069690;28;20196;-59
2024/01/21 06:50:48;;;;;;;12.70;8.47;;;;;;;-144.30;100.00;86832.03;5069833;28;20287;-58
2024/01/21 06:53:15;;;;;;;11.13;8.30;;;;;;;-144.30;100.00;86832.03;5069821;28;20701;-59
2024/01/21 06:55:43;;;;;;;14.37;8.40;;;;;;;-144.30;100.00;86810.16;5069755;28;20210;-58
2024/01/21 06:58:13;;;;;;;13.27;8.30;;;;;;;-144.30;100.00;86834.00;5068179;28;20447;-58
2024/01/21 07:00:40;;;;;;;13.57;9.27;;;;;;;-144.30;100.00;86832.03;5069450;28;20203;-58
2024/01/21 07:03:06;;;;;;;13.33;8.70;;;;;;;-144.30;100.00;86796.22;5069685;28;20573;-59
2024/01/21 07:05:33;;;;;;;17.87;9.50;;;;;;;-144.30;100.00;86839.97;5069451;28;20703;-58
2024/01/21 07:08:00;;;;;;;17.97;10.10;;;;;;;-144.30;100.00;86802.19;5069767;28;20196;-59
2024/01/21 07:10:27;;;;;;;21.77;12.50;;;;;;;-144.30;100.00;86818.09;5067871;28;20200;-59
2024/01/21 07:12:55;;;;;;;24.27;12.40;;;;;;;-144.30;100.00;86818.09;5069453;28;20286;-55
2024/01/21 07:15:24;;;;;;;24.87;13.70;;;;;;;-144.30;100.00;86631.16;5068884;28;20215;-55
2024/01/21 07:17:51;;;;;;;35.27;18.97;;;;;;;-144.30;100.00;86804.19;5069884;28;20664;-59
2024/01/21 07:20:18;;;;;;;42.27;20.03;;;;;;;-144.30;100.00;86806.16;5069474;28;20534;-59
2024/01/21 07:22:45;;;;;;;36.93;20.40;;;;;;;-144.30;100.00;86816.13;5070184;28;20213;-55
2024/01/21 07:25:14;;;;;;;42.77;21.03;;;;;;;-144.30;100.00;86774.34;5073428;28;20226;-58
2024/01/21 07:27:42;;;;;;;41.57;22.40;;;;;;;-144.30;100.00;86838.00;5073423;28;20410;-57
2024/01/21 07:30:11;;;;;;;39.60;22.60;;;;;;;-144.30;100.00;86800.19;5073432;28;20306;-55
2024/01/21 07:32:41;;;;;;;44.37;22.50;;;;;;;-144.30;100.00;86800.19;5073417;28;20610;-56
2024/01/21 07:35:09;;;;;;;43.60;22.33;;;;;;;-144.30;100.00;86828.03;5073472;28;20228;-56
2024/01/21 07:37:36;;;;;;;38.03;21.70;;;;;;;-144.30;100.00;86839.97;5073289;28;20210;-58
2024/01/21 07:40:04;;;;;;;33.77;20.13;;;;;;;-144.30;100.00;86843.97;5073931;28;20229;-58
2024/01/21 07:42:31;;;;;;;34.17;20.13;;;;;;;-144.30;100.00;86816.13;5073077;28;20684;-59
2024/01/21 07:44:58;;;;;;;32.30;19.23;;;;;;;-144.30;100.00;86800.19;5071892;28;20231;-56
2024/01/21 07:47:25;;;;;;;25.47;14.50;;;;;;;-144.30;100.00;86847.94;5070475;28;20260;-59
2024/01/21 07:49:53;;;;;;;23.10;13.90;;;;;;;-144.30;100.00;86843.97;5052586;28;20210;-58
2024/01/21 07:52:20;;;;;;;19.73;12.40;;;;;;;-144.30;100.00;86798.22;5051590;28;20196;-56
2024/01/21 07:54:47;;;;;;;20.27;12.00;;;;;;;-144.30;100.00;86808.16;5052696;28;20193;-55
2024/01/21 07:57:14;;;;;;;22.17;13.17;;;;;;;-144.30;100.00;86851.91;5051901;28;20217;-55
2024/01/21 07:59:41;;;;;;;23.63;13.63;;;;;;;-144.30;100.00;86806.16;5052954;28;20736;-55
2024/01/21 08:02:08;;;;;;;22.53;13.10;;;;;;;-144.30;100.00;86826.06;5051730;28;20208;-55
2024/01/21 08:04:35;;;;;;;18.63;11.43;;;;;;;-144.30;100.00;86808.16;5052679;28;20228;-54
2024/01/21 08:07:04;;;;;;;15.07;10.80;;;;;;;-144.30;100.00;86812.13;5052848;28;20246;-55
2024/01/21 08:09:31;;;;;;;19.00;12.00;;;;;;;-144.30;100.00;86812.13;5052441;28;20207;-55
2024/01/21 08:11:58;;;;;;;17.23;11.50;;;;;;;-144.30;100.00;86834.00;5052706;28;20192;-55
2024/01/21 08:14:24;;;;;;;22.83;12.47;;;;;;;-144.30;100.00;86839.97;5052792;28;20556;-55
2024/01/21 08:16:51;;;;;;;19.13;12.17;;;;;;;-144.30;100.00;86851.91;5052807;28;20239;-59
2024/01/21 08:19:20;;;;;;;17.70;11.27;;;;;;;-144.30;100.00;86824.06;5052864;28;20578;-55
2024/01/21 08:21:47;;;;;;;17.20;10.80;;;;;;;-144.30;100.00;86838.00;5052738;28;20223;-58
2024/01/21 08:24:15;;;;;;;16.77;11.03;;;;;;;-144.30;100.00;86770.38;5052265;28;20229;-59
2024/01/21 08:26:42;;;;;;;20.77;12.33;;;;;;;-144.30;100.00;86839.97;5052292;28;20200;-58
2024/01/21 08:29:09;;;;;;;19.33;12.23;;;;;;;-144.30;100.00;86841.97;5052383;28;20202;-58
2024/01/21 08:31:42;;;;;;;24.07;13.80;;;;;;;-144.30;100.00;86867.81;5052221;28;20192;-58
2024/01/21 08:34:09;;;;;;;18.33;12.43;;;;;;;-144.30;100.00;86859.88;5051978;28;20676;-58
2024/01/21 08:36:36;;;;;;;22.37;12.83;;;;;;;-144.30;100.00;86826.06;5052152;28;20306;-58
2024/01/21 08:39:05;;;;;;;20.17;12.93;;;;;;;-144.30;100.00;86786.28;5052168;28;20196;-55
2024/01/21 08:41:34;;;;;;;22.60;13.87;;;;;;;-144.30;100.00;86786.28;5052201;28;20580;-55
2024/01/21 08:44:01;;;;;;;19.47;12.67;;;;;;;-144.30;100.00;86843.97;5052200;28;20223;-57
2024/01/21 08:46:28;;;;;;;18.93;12.37;;;;;;;-144.30;100.00;86861.84;5051863;28;20233;-58
2024/01/21 08:48:55;;;;;;;17.57;9.97;;;;;;;-144.30;98.84;86834.00;5067233;28;20210;-56
2024/01/21 08:51:22;;;;;;;14.93;9.83;;;;;;;-144.30;97.44;86853.91;5071858;28;20196;-58
2024/01/21 08:53:55;;;;;;;13.17;8.87;;;;;;;-144.30;97.36;86832.03;5072129;28;20235;-53
2024/01/21 08:56:23;;;;;;;11.70;8.17;;;;;;;-144.30;97.05;86851.91;5071978;28;20215;-57
2024/01/21 08:58:51;;;;;;;13.17;9.07;;;;;;;-144.30;96.94;86758.44;5066353;28;20198;-57
2024/01/21 09:01:18;;;;;;;12.17;8.70;;;;;;;-144.30;96.50;86822.09;5070677;28;20195;-57
2024/01/21 09:03:45;;;;;;;14.10;9.23;;;;;;;-144.30;96.30;86818.09;5070829;28;20609;-57
2024/01/21 09:06:12;;;;;;;15.27;8.80;;;;;;;-144.30;96.17;86726.63;5069281;28;20211;-57
2024/01/21 09:08:39;;;;;;;12.03;7.93;;;;;;;-144.30;95.43;86832.03;5070773;28;20197;-58
2024/01/21 09:11:06;;;;;;;10.93;8.07;;;;;;;-144.30;95.21;86806.16;5070862;28;20744;-55
2024/01/21 09:13:33;;;;;;;10.47;8.17;;;;;;;-144.30;95.45;86845.94;5071190;28;20201;-53
2024/01/21 09:16:02;;;;;;;14.27;8.80;;;;;;;-144.30;94.93;86836.00;5071105;28;20626;-58
2024/01/21 09:18:30;;;;;;;11.37;8.27;;;;;;;-144.30;94.99;86863.84;5071481;28;20295;-58
2024/01/21 09:20:58;;;;;;;14.93;9.30;;;;;;;-144.30;95.36;86843.97;5071620;28;20204;-57
2024/01/21 09:23:25;;;;;;;14.30;9.20;;;;;;;-144.30;95.37;86812.13;5070567;28;20233;-57
2024/01/21 09:25:52;;;;;;;11.20;7.83;;;;;;;-144.30;95.35;86861.84;5070840;28;20627;-58
2024/01/21 09:28:19;;;;;;;10.03;6.27;;;;;;;-144.30;93.42;86839.97;5067894;28;20220;-58
2024/01/21 09:30:46;;;;;;;6.53;5.50;;;;;;;-144.30;93.13;86798.22;5071166;28;20260;-57
2024/01/21 09:33:15;;;;;;;7.70;5.83;;;;;;;-144.30;91.72;86812.13;5071464;28;20663;-58
2024/01/21 09:35:41;;;;;;;8.80;5.80;;;;;;;-144.30;91.58;86818.09;5071124;28;20283;-58
2024/01/21 09:38:10;;;;;;;9.57;6.53;;;;;;;-144.30;92.28;86826.06;5071096;28;20196;-57
2024/01/21 09:40:37;;;;;;;6.27;5.67;;;;;;;-144.30;92.16;86826.06;5065959;28;20206;-54
2024/01/21 09:43:04;;;;;;;6.80;5.23;;;;;;;-144.30;91.96;86820.09;5059150;28;20213;-54
2024/01/21 09:45:34;;;;;;;6.27;5.10;;;;;;;-144.30;92.21;87281.50;5064944;28;20216;-54
2024/01/21 09:48:01;;;;;;;7.00;5.73;;;;;;;-144.30;92.44;86836.00;5066899;28;20205;-54
2024/01/21 09:50:31;;;;;;;5.93;5.33;;;;;;;-144.30;92.08;86828.03;5061852;28;20235;-54
2024/01/21 09:52:58;;;;;;;5.50;4.87;;;;;;;-144.30;92.18;86816.13;5070622;28;20202;-53
2024/01/21 09:55:25;;;;;;;8.03;6.00;;;;;;;-144.30;92.18;86824.06;5057161;28;20209;-55
2024/01/21 09:57:52;;;;;;;7.37;6.23;;;;;;;-144.30;92.96;86849.91;5065059;28;20211;-54
2024/01/21 10:00:20;;;;;;;9.90;6.17;;;;;;;-144.30;92.07;86830.03;5052193;28;20655;-58
2024/01/21 10:02:49;;;;;;;10.40;6.20;;;;;;;-144.30;92.05;86843.97;5050819;28;20671;-57
2024/01/21 10:05:15;;;;;;;7.97;5.33;;;;;;;-144.30;92.53;86830.03;5050413;28;20259;-57
2024/01/21 10:07:45;;;;;;;5.17;4.67;;;;;;;-144.30;91.96;86812.13;5054145;28;20203;-61
2024/01/21 10:10:13;;;;;;;6.63;5.57;;;;;;;-144.30;91.41;86824.06;5070668;28;20205;-59
2024/01/21 10:12:40;;;;;;;5.40;4.90;;;;;;;-144.30;91.42;86792.25;5073974;28;20209;-58
2024/01/21 10:15:08;;;;;;;7.30;4.80;;;;;;;-144.30;91.77;86822.09;5089980;28;20401;-57
2024/01/21 10:17:35;;;;;;;7.20;5.83;;;;;;;-144.30;91.82;86836.00;5089479;28;20204;-56
2024/01/21 10:20:02;;;;;;;8.27;6.67;;;;;;;-144.30;91.42;86788.28;5089654;28;20289;-56
2024/01/21 10:22:29;;;;;;;8.57;6.57;;;;;;;-144.30;90.87;86790.25;5089390;28;20198;-56
2024/01/21 10:25:01;;;;;;;8.80;6.73;;;;;;;-144.30;90.50;86812.13;5089732;28;20225;-56
2024/01/21 10:27:28;;;;;;;9.70;6.83;;;;;;;-144.30;90.74;86849.91;5090358;28;20249;-56
2024/01/21 10:29:57;;;;;;;7.77;6.60;;;;;;;-144.30;90.99;86800.19;5090763;28;20300;-56
2024/01/21 10:32:24;;;;;;;10.70;7.57;;;;;;;-144.30;91.83;86839.97;5090523;28;20578;-56
2024/01/21 10:34:52;;;;;;;12.47;7.93;;;;;;;-144.30;92.12;86832.03;5090351;28;20199;-57
2024/01/21 10:37:20;;;;;;;10.57;8.30;;;;;;;-144.30;92.78;86851.91;5090194;28;20312;-56
2024/01/21 10:39:48;;;;;;;12.63;9.00;;;;;;;-144.30;92.64;86820.09;5090420;28;20651;-57
2024/01/21 10:42:17;;;;;;;11.53;8.27;;;;;;;-144.30;93.02;86804.19;5090269;28;20198;-54
2024/01/21 10:44:45;;;;;;;11.97;8.93;;;;;;;-144.30;92.36;86792.25;5071564;28;20199;-53
2024/01/21 10:47:13;;;;;;;13.87;8.80;;;;;;;-144.30;92.41;86816.13;5070043;28;20873;-54
2024/01/21 10:49:41;;;;;;;13.27;9.73;;;;;;;-144.30;90.98;86832.03;5069754;28;20282;-57
2024/01/21 10:52:10;;;;;;;13.97;9.67;;;;;;;-144.30;91.25;86859.88;5069734;28;20274;-54
2024/01/21 10:54:38;;;;;;;12.03;8.80;;;;;;;-144.30;91.07;86830.03;5069994;28;20734;-57
2024/01/21 10:57:06;;;;;;;16.43;10.73;;;;;;;-144.30;91.38;86814.13;5069919;28;20253;-56
2024/01/21 10:59:36;;;;;;;13.27;8.80;;;;;;;-144.30;92.22;86857.88;5069857;28;20285;-57
2024/01/21 11:02:03;;;;;;;13.03;8.80;;;;;;;-144.30;91.96;86839.97;5070057;28;20192;-56
2024/01/21 11:04:30;;;;;;;11.57;7.70;;;;;;;-144.30;91.60;86841.97;5069304;28;20199;-56